Pasadena, CA (91103)

9:39 PM PST on December 19, 2014 (GMT -0800)
Altadena | Change Station
CLOSE
Current Station
Personal Weather Station
Location: Altadena, CA
Elevation: 1214 ft
Nearby Weather Stations

Elev 1214 ft 34.19 °N, 118.16 °W | Updated 10 seconds ago

Partly Cloudy
Partly Cloudy
51.6 °F
Feels Like 51.6 °F
N
1.6
Wind Variable Wind from West
Gusts 3.8 mph

Today
High -- | Low -- °F
--% Chance of Precip.
Yesterday
High -- | Low -- °F
Precip. -- in
6:53 AM 4:46 PM
Waning Crescent, 4% visible
Pressure 30.15 in
Visibility 10.0 miles
Clouds Clear
Dew Point 51 °F
Humidity 99%
Rainfall 0.00 in
Snow Depth Not available.
UV 0 out of 12
Pollen 3.80 out of 12
Air Quality Not available.
Flu Activity Not available.
METAR KBUR 200453Z 00000KT 10SM CLR 13/08 A3017 RMK AO2 SLP209 T01280083

More Conditions Fewer Conditions

Pressure 30.15 in
Visibility 10.0 miles
Clouds Clear
Dew Point 51 °F
Humidity 99%
Rainfall 0.00 in
Snow Depth Not available.
UV 0 out of 12
Pollen 3.80 out of 12
Air Quality Not available.
Flu Activity Not available.
METAR KBUR 200453Z 00000KT 10SM CLR 13/08 A3017 RMK AO2 SLP209 T01280083

More Conditions Fewer Conditions

10-Day Weather Forecast

Almanac

Astronomy

Dec. 19, 2014 Rise Set
Actual Time
Civil Twilight
Nautical Twilight
Astronomical Twilight
Moon
Length of Visible Light
Length of Day
Tomorrow will be .
, % of the Moon is Illuminated

Today's Extremes

State Highs State Lows

Community

WunderPhotos

Upload Photos

1,779,141 photos uploaded!

WunderBlogs® & News

Nearby

Air Quality

  Air Quality AQ Index Pollutant
Not available.

Snow Depth

Station Depth Elevation

Earthquake Activity

City Distance Mag. Time & Date
Minimum magnitude displayed is 2.5.

Coastal Water Temperatures

Place Temperature

Nearby Weather Stations